Time;durP1;ratioP1;P1;durP2;ratioP2;P2;SDS_P1;SDS_P2;PMS_P1;PMS_P2;Temp;Humidity;BMP_temperature;BMP_pressure;BME280_temperature;BME280_humidity;BME280_pressure;Samples;Min_cycle;Max_cycle;Signal;HPM_P1;HPM_P2
2024/02/18 00:00:41;;;;;;;0.70;0.70;;;;;;;6.92;95.01;100212.13;4928456;29;20102;-93
2024/02/18 00:03:07;;;;;;;0.70;0.70;;;;;;;6.92;95.24;100206.81;4947132;29;20030;-94
2024/02/18 00:05:33;;;;;;;0.70;0.70;;;;;;;6.92;95.37;100222.72;4976303;28;20182;-95
2024/02/18 00:08:02;;;;;;;0.80;0.80;;;;;;;6.96;95.28;100218.56;4944074;29;20039;-94
2024/02/18 00:10:28;;;;;;;0.70;0.70;;;;;;;6.93;95.34;100224.56;4958585;28;20043;-94
2024/02/18 00:12:54;;;;;;;0.70;0.70;;;;;;;6.89;95.54;100226.09;4938251;29;20051;-95
2024/02/18 00:15:19;;;;;;;0.70;0.70;;;;;;;6.83;95.79;100215.06;4940841;29;20110;-94
2024/02/18 00:17:45;;;;;;;0.70;0.70;;;;;;;6.83;95.43;100217.72;4939745;29;20059;-95
2024/02/18 00:20:11;;;;;;;0.70;0.70;;;;;;;6.87;95.37;100213.53;4947028;29;20062;-94
2024/02/18 00:22:37;;;;;;;0.70;0.70;;;;;;;6.91;95.65;100215.59;4952324;29;20023;-93
2024/02/18 00:25:06;;;;;;;0.70;0.70;;;;;;;6.97;95.24;100216.00;4956970;28;20042;-94
2024/02/18 00:27:32;;;;;;;0.80;0.80;;;;;;;6.97;95.07;100217.72;4944996;29;20034;-93
2024/02/18 00:29:58;;;;;;;0.70;0.70;;;;;;;6.89;95.21;100215.47;4940754;29;20038;-94
2024/02/18 00:32:23;;;;;;;0.70;0.70;;;;;;;6.91;95.33;100210.28;4961118;29;20090;-94
2024/02/18 00:34:50;;;;;;;0.65;0.65;;;;;;;6.93;95.38;100204.25;4953594;29;20043;-94
2024/02/18 00:37:19;;;;;;;0.70;0.70;;;;;;;6.91;95.47;100210.28;4957529;29;20047;-95
2024/02/18 00:39:44;;;;;;;0.68;0.68;;;;;;;6.89;95.68;100207.50;4971244;28;20035;-95
2024/02/18 00:42:10;;;;;;;0.70;0.70;;;;;;;6.85;95.76;100210.81;4967849;28;20030;-93
2024/02/18 00:44:37;;;;;;;0.70;0.70;;;;;;;6.83;95.38;100207.09;4914944;29;20027;-94
2024/02/18 00:47:04;;;;;;;0.70;0.70;;;;;;;6.83;95.55;100196.50;4962013;29;20054;-93
2024/02/18 00:49:31;;;;;;;0.70;0.70;;;;;;;6.77;95.83;100208.44;4957533;29;20038;-94
2024/02/18 00:51:57;;;;;;;;;;;;;;;6.79;95.69;100201.50;4953102;28;20043;-94
2024/02/18 00:54:24;;;;;;;0.70;0.70;;;;;;;6.84;95.44;100200.97;4950119;29;19914;-93
2024/02/18 00:56:50;;;;;;;0.70;0.70;;;;;;;6.81;95.33;100205.19;4969488;28;20035;-93
2024/02/18 00:59:19;;;;;;;0.70;0.70;;;;;;;6.83;95.53;100204.44;4942093;28;20097;-94
2024/02/18 01:01:44;;;;;;;0.60;0.60;;;;;;;6.81;95.29;100198.13;4957283;28;20134;-95
2024/02/18 01:04:10;;;;;;;0.70;0.70;;;;;;;6.78;95.49;100197.00;4920697;29;20085;-95
2024/02/18 01:06:36;;;;;;;0.70;0.70;;;;;;;6.77;95.92;100198.75;4939875;29;20027;-94
2024/02/18 01:09:02;;;;;;;0.70;0.70;;;;;;;6.78;95.73;100197.00;4923020;29;20114;-94
2024/02/18 01:11:30;;;;;;;0.70;0.70;;;;;;;6.77;95.55;100201.41;4958534;28;20044;-95
2024/02/18 01:13:57;;;;;;;0.70;0.70;;;;;;;6.81;95.83;100200.78;4952142;29;20562;-94
2024/02/18 01:16:22;;;;;;;0.70;0.70;;;;;;;6.83;95.96;100198.22;4949105;29;20036;-93
2024/02/18 01:18:49;;;;;;;0.70;0.70;;;;;;;6.89;95.52;100199.56;4931660;29;20050;-95
2024/02/18 01:21:16;;;;;;;0.70;0.70;;;;;;;6.84;95.35;100205.38;4940061;29;20085;-95
2024/02/18 01:23:42;;;;;;;0.70;0.70;;;;;;;6.81;95.31;100206.09;4939675;29;20065;-94
2024/02/18 01:26:08;;;;;;;0.70;0.70;;;;;;;6.91;95.23;100200.59;4938417;29;20043;-95
2024/02/18 01:28:34;;;;;;;0.70;0.70;;;;;;;6.87;95.41;100198.53;4933514;29;20039;-94
2024/02/18 01:31:00;;;;;;;0.60;0.60;;;;;;;6.88;95.60;100200.38;4938044;29;20042;-94
2024/02/18 01:33:26;;;;;;;0.60;0.60;;;;;;;6.90;94.93;100189.88;4952048;28;20490;-94
2024/02/18 01:35:51;;;;;;;0.60;0.60;;;;;;;6.84;95.48;100195.66;4919579;29;20055;-94
2024/02/18 01:38:18;;;;;;;0.70;0.70;;;;;;;6.83;95.17;100191.19;4939468;29;20028;-95
2024/02/18 01:40:43;;;;;;;0.60;0.60;;;;;;;6.84;95.52;100185.06;4936440;29;20128;-94
2024/02/18 01:43:09;;;;;;;0.60;0.60;;;;;;;6.87;95.34;100189.66;4951794;28;20050;-94
2024/02/18 01:45:34;;;;;;;0.70;0.70;;;;;;;6.90;95.30;100177.53;4937511;29;20038;-94
2024/02/18 01:48:00;;;;;;;0.70;0.70;;;;;;;7.03;94.77;100179.25;4937263;29;20039;-95
2024/02/18 01:50:26;;;;;;;0.70;0.70;;;;;;;7.05;94.36;100176.72;4949220;28;20046;-93
2024/02/18 01:52:53;;;;;;;0.60;0.60;;;;;;;7.00;94.54;100178.16;4954700;28;20051;-94
2024/02/18 01:55:21;;;;;;;0.70;0.70;;;;;;;7.04;94.38;100181.13;4936469;29;20036;-94
2024/02/18 01:57:47;;;;;;;0.60;0.60;;;;;;;7.03;94.70;100178.34;4952585;28;20409;-96
2024/02/18 02:00:20;;;;;;;0.70;0.70;;;;;;;7.02;94.26;100171.19;4940355;28;20042;-96
2024/02/18 02:02:49;;;;;;;0.60;0.60;;;;;;;7.10;93.82;100175.28;4948747;29;20039;-94
2024/02/18 02:05:20;;;;;;;0.70;0.70;;;;;;;7.07;93.90;100175.97;4952942;28;20046;-95
2024/02/18 02:07:52;;;;;;;0.70;0.70;;;;;;;6.96;94.34;100170.81;4954109;28;20031;-94
2024/02/18 02:10:19;;;;;;;0.70;0.70;;;;;;;6.87;94.78;100168.44;4968644;28;20083;-94
2024/02/18 02:12:45;;;;;;;0.70;0.70;;;;;;;6.82;95.39;100169.88;4962818;28;20105;-94
2024/02/18 02:15:11;;;;;;;0.60;0.60;;;;;;;6.80;95.33;100167.09;4950397;28;20031;-95
2024/02/18 02:17:37;;;;;;;0.70;0.70;;;;;;;6.75;95.27;100165.88;4941832;28;20107;-94
2024/02/18 02:20:11;;;;;;;0.70;0.70;;;;;;;6.84;95.21;100168.22;4981756;28;20051;-94
2024/02/18 02:22:38;;;;;;;0.70;0.70;;;;;;;6.72;95.43;100159.47;4967524;28;20104;-95
2024/02/18 02:25:09;;;;;;;0.70;0.70;;;;;;;6.69;95.59;100154.88;4959185;28;20059;-93
2024/02/18 02:27:37;;;;;;;0.70;0.70;;;;;;;6.57;95.40;100165.56;4988385;28;20039;-95
2024/02/18 02:30:04;;;;;;;0.70;0.70;;;;;;;6.38;96.01;100159.84;4974716;28;20015;-95
2024/02/18 02:32:32;;;;;;;0.70;0.70;;;;;;;6.25;96.38;100162.44;4961294;28;20027;-95
2024/02/18 02:34:58;;;;;;;0.70;0.70;;;;;;;6.25;97.55;100154.50;4951196;29;20079;-94
2024/02/18 02:37:25;;;;;;;0.70;0.70;;;;;;;6.11;97.28;100153.53;4939570;29;20044;-92
2024/02/18 02:39:52;;;;;;;0.80;0.80;;;;;;;6.03;98.23;100147.69;4949567;28;20126;-93
2024/02/18 02:42:18;;;;;;;0.70;0.70;;;;;;;5.85;98.52;100149.97;4936587;29;20107;-92
2024/02/18 02:44:46;;;;;;;0.70;0.70;;;;;;;5.81;99.27;100139.97;4950434;29;20597;-94
2024/02/18 02:47:12;;;;;;;0.77;0.77;;;;;;;5.75;99.75;100138.59;4938410;29;20035;-93
2024/02/18 02:49:37;;;;;;;0.70;0.70;;;;;;;5.73;99.98;100137.56;4946934;29;20565;-94
2024/02/18 02:52:04;;;;;;;0.70;0.70;;;;;;;5.72;99.51;100149.91;4950206;28;20039;-93
2024/02/18 02:54:30;;;;;;;;;;;;;;;5.56;98.85;100152.28;4948291;29;20051;-93
2024/02/18 02:56:58;;;;;;;0.80;0.80;;;;;;;5.47;99.49;100141.03;4937870;29;19929;-93
2024/02/18 02:59:24;;;;;;;0.70;0.70;;;;;;;5.41;100.00;100136.19;4966367;28;20698;-94
2024/02/18 03:01:49;;;;;;;0.75;0.75;;;;;;;5.71;100.00;100144.50;4928467;29;20031;-93
2024/02/18 03:04:15;;;;;;;0.70;0.70;;;;;;;5.47;100.00;100139.31;4925111;29;20036;-93
2024/02/18 03:06:40;;;;;;;0.73;0.73;;;;;;;5.14;100.00;100140.44;4932373;28;20070;-94
2024/02/18 03:09:07;;;;;;;0.80;0.80;;;;;;;5.08;100.00;100137.34;4954479;29;20043;-94
2024/02/18 03:11:32;;;;;;;0.80;0.80;;;;;;;5.10;100.00;100138.34;4938274;29;20070;-94
2024/02/18 03:13:58;;;;;;;0.80;0.80;;;;;;;4.95;100.00;100143.44;4943018;29;20130;-94
2024/02/18 03:16:24;;;;;;;0.70;0.70;;;;;;;4.84;100.00;100150.59;4921619;29;20024;-93
2024/02/18 03:18:50;;;;;;;0.80;0.80;;;;;;;4.86;100.00;100146.31;4939169;29;20098;-94
2024/02/18 03:21:16;;;;;;;0.80;0.80;;;;;;;4.80;100.00;100139.66;4951019;29;20031;-95
2024/02/18 03:23:42;;;;;;;0.70;0.70;;;;;;;4.78;100.00;100143.91;4923604;29;20087;-95
2024/02/18 03:26:08;;;;;;;0.73;0.73;;;;;;;4.63;100.00;100141.97;4939340;29;20478;-94
2024/02/18 03:28:34;;;;;;;0.80;0.80;;;;;;;4.74;100.00;100140.09;4942576;29;20440;-95
2024/02/18 03:31:00;;;;;;;0.80;0.80;;;;;;;4.78;100.00;100136.88;4931949;29;20069;-95
2024/02/18 03:33:25;;;;;;;0.80;0.80;;;;;;;4.79;100.00;100136.13;4935219;29;20494;-95
2024/02/18 03:35:51;;;;;;;0.80;0.80;;;;;;;4.68;100.00;100139.66;4939941;29;20043;-94
2024/02/18 03:38:17;;;;;;;0.80;0.80;;;;;;;4.66;100.00;100135.09;4935700;29;20031;-94
2024/02/18 03:40:43;;;;;;;0.90;0.90;;;;;;;4.85;100.00;100130.34;4930962;29;20050;-94
2024/02/18 03:43:09;;;;;;;0.80;0.80;;;;;;;4.61;100.00;100134.72;4941731;29;20450;-95
2024/02/18 03:45:35;;;;;;;0.82;0.82;;;;;;;4.33;100.00;100131.72;4922498;29;20020;-95
2024/02/18 03:48:01;;;;;;;0.82;0.82;;;;;;;4.06;100.00;100139.38;4956910;28;20027;-94
2024/02/18 03:50:27;;;;;;;0.80;0.80;;;;;;;3.91;100.00;100129.34;4953454;29;20440;-93
2024/02/18 03:52:53;;;;;;;0.90;0.90;;;;;;;4.05;100.00;100129.59;4958961;28;20121;-94
2024/02/18 03:55:18;;;;;;;0.80;0.80;;;;;;;3.98;100.00;100135.25;4946608;29;20046;-92
2024/02/18 03:57:44;;;;;;;0.85;0.85;;;;;;;3.86;100.00;100135.19;4929677;29;20064;-93
2024/02/18 04:00:11;;;;;;;0.90;0.90;;;;;;;3.86;100.00;100131.63;4947969;29;20034;-93
2024/02/18 04:02:38;;;;;;;0.77;0.77;;;;;;;3.74;100.00;100134.25;4941601;29;20565;-94
2024/02/18 04:05:11;;;;;;;0.90;0.90;;;;;;;3.53;100.00;100136.09;4943720;29;20026;-94
2024/02/18 04:07:39;;;;;;;0.80;0.80;;;;;;;3.50;100.00;100127.97;4943904;28;20081;-94
2024/02/18 04:10:06;;;;;;;0.90;0.90;;;;;;;3.26;100.00;100132.19;4947747;29;20071;-93
2024/02/18 04:12:31;;;;;;;0.90;0.90;;;;;;;3.32;100.00;100139.69;4962122;28;20035;-94
2024/02/18 04:14:57;;;;;;;0.90;0.90;;;;;;;3.21;100.00;100146.75;4957248;28;20042;-93
2024/02/18 04:17:24;;;;;;;0.90;0.90;;;;;;;2.97;100.00;100140.41;4932626;29;20040;-94
2024/02/18 04:19:49;;;;;;;0.90;0.90;;;;;;;2.69;100.00;100144.19;4961167;28;20043;-94
2024/02/18 04:22:16;;;;;;;1.00;1.00;;;;;;;2.86;100.00;100141.22;4933617;29;20066;-95
2024/02/18 04:24:42;;;;;;;0.90;0.90;;;;;;;2.77;100.00;100140.47;4951324;29;20023;-94
2024/02/18 04:27:08;;;;;;;0.90;0.90;;;;;;;2.78;100.00;100144.97;4973545;28;20042;-93
2024/02/18 04:29:38;;;;;;;1.00;1.00;;;;;;;2.74;100.00;100146.41;4950517;29;20047;-93
2024/02/18 04:32:04;;;;;;;0.90;0.90;;;;;;;2.92;100.00;100144.34;4981439;28;20046;-93
2024/02/18 04:34:30;;;;;;;0.80;0.80;;;;;;;3.03;100.00;100143.53;4948583;29;20124;-93
2024/02/18 04:36:55;;;;;;;0.90;0.90;;;;;;;3.01;100.00;100149.44;4963957;29;20055;-94
2024/02/18 04:39:21;;;;;;;0.90;0.90;;;;;;;2.91;100.00;100145.16;4947847;28;20031;-94
2024/02/18 04:41:46;;;;;;;1.00;1.00;;;;;;;3.05;100.00;100144.56;4946298;29;20569;-93
2024/02/18 04:44:12;;;;;;;1.00;1.00;;;;;;;3.04;100.00;100147.06;4945250;29;20047;-94
2024/02/18 04:46:37;;;;;;;0.90;0.90;;;;;;;3.05;100.00;100141.91;4954001;29;20031;-94
2024/02/18 04:49:04;;;;;;;0.90;0.90;;;;;;;3.05;100.00;100138.38;4960016;28;20023;-94
2024/02/18 04:51:30;;;;;;;1.00;1.00;;;;;;;2.97;100.00;100140.41;4959364;28;20027;-94
2024/02/18 04:53:56;;;;;;;0.95;0.95;;;;;;;2.93;100.00;100133.03;4946396;29;20047;-94
2024/02/18 04:56:22;;;;;;;0.90;0.90;;;;;;;3.05;100.00;100138.38;4949802;29;20027;-95
2024/02/18 04:58:47;;;;;;;1.00;1.00;;;;;;;3.05;100.00;100134.00;4936506;29;20043;-95
2024/02/18 05:01:16;;;;;;;1.10;1.10;;;;;;;3.05;100.00;100127.81;4953239;29;20046;-94
2024/02/18 05:03:57;;;;;;;0.95;0.95;;;;;;;2.85;100.00;100128.84;4957224;28;20028;-95
2024/02/18 05:06:23;;;;;;;1.00;1.00;;;;;;;2.94;100.00;100131.31;4959835;29;20050;-92
2024/02/18 05:08:50;;;;;;;1.00;1.00;;;;;;;2.97;100.00;100129.84;4970478;28;20027;-94
2024/02/18 05:11:15;;;;;;;1.08;1.08;;;;;;;3.09;100.00;100120.28;4971101;28;20035;-93
2024/02/18 05:13:41;;;;;;;1.00;1.00;;;;;;;3.26;100.00;100126.00;4956787;29;20043;-94
2024/02/18 05:16:09;;;;;;;0.90;0.90;;;;;;;3.25;100.00;100118.88;4954754;29;20047;-95
2024/02/18 05:18:34;;;;;;;0.90;0.90;;;;;;;3.09;100.00;100114.09;4939045;29;20032;-94
2024/02/18 05:21:06;;;;;;;0.90;0.90;;;;;;;3.23;100.00;100123.13;4928652;29;20426;-93
2024/02/18 05:23:32;;;;;;;0.90;0.90;;;;;;;3.31;100.00;100115.03;4961753;29;20035;-94
2024/02/18 05:25:58;;;;;;;1.00;1.00;;;;;;;3.52;100.00;100112.25;4964512;28;20062;-94
2024/02/18 05:28:24;;;;;;;0.90;0.90;;;;;;;3.51;100.00;100105.13;4940132;29;20746;-94
2024/02/18 05:30:50;;;;;;;1.00;1.00;;;;;;;3.43;100.00;100106.22;4952994;29;20034;-94
2024/02/18 05:33:15;;;;;;;0.90;0.90;;;;;;;3.27;100.00;100105.03;4942900;29;20282;-93
2024/02/18 05:35:42;;;;;;;0.90;0.90;;;;;;;3.06;100.00;100116.47;4942944;29;20026;-93
2024/02/18 05:38:07;;;;;;;1.00;1.00;;;;;;;2.94;100.00;100119.06;4921365;29;20039;-94
2024/02/18 05:40:33;;;;;;;0.90;0.90;;;;;;;2.90;100.00;100118.69;4952990;28;20034;-94
2024/02/18 05:42:59;;;;;;;0.80;0.80;;;;;;;2.80;100.00;100110.00;4958910;28;20074;-93
2024/02/18 05:45:30;;;;;;;0.98;0.98;;;;;;;2.62;100.00;100110.22;4933550;29;20055;-93
2024/02/18 05:47:57;;;;;;;0.93;0.93;;;;;;;2.46;100.00;100113.31;4956577;29;20066;-93
2024/02/18 05:50:25;;;;;;;0.90;0.90;;;;;;;2.61;100.00;100104.03;4941261;29;20718;-94
2024/02/18 05:52:50;;;;;;;1.00;1.00;;;;;;;2.76;100.00;100102.66;4941780;29;20055;-93
2024/02/18 05:55:16;;;;;;;0.98;0.98;;;;;;;2.78;100.00;100101.06;4944132;29;20063;-94
2024/02/18 05:57:42;;;;;;;1.00;1.00;;;;;;;2.89;100.00;100098.41;4928244;29;20046;-95
2024/02/18 06:00:08;;;;;;;1.00;1.00;;;;;;;2.91;100.00;100094.16;4944315;29;20437;-94
2024/02/18 06:02:35;;;;;;;0.90;0.90;;;;;;;2.81;100.00;100092.47;4929133;29;20171;-94
2024/02/18 06:05:00;;;;;;;0.90;0.90;;;;;;;2.73;100.00;100091.88;4943339;29;20083;-94
2024/02/18 06:07:28;;;;;;;1.00;1.00;;;;;;;2.61;100.00;100105.75;4931806;29;20047;-94
2024/02/18 06:09:54;;;;;;;0.90;0.90;;;;;;;2.58;100.00;100095.88;4943655;29;20484;-94
2024/02/18 06:12:19;;;;;;;1.00;1.00;;;;;;;2.64;100.00;100088.50;4947210;28;20198;-94
2024/02/18 06:14:47;;;;;;;1.02;1.02;;;;;;;2.61;100.00;100087.31;4923609;29;20047;-94
2024/02/18 06:17:12;;;;;;;1.05;1.05;;;;;;;2.54;100.00;100092.09;4955053;29;20043;-95
2024/02/18 06:19:42;;;;;;;1.00;1.00;;;;;;;2.53;100.00;100082.31;4941895;29;20147;-95
2024/02/18 06:22:08;;;;;;;0.85;0.85;;;;;;;2.50;100.00;100079.44;4938300;29;20050;-93
2024/02/18 06:24:33;;;;;;;0.98;0.98;;;;;;;2.42;100.00;100087.50;4946678;29;20035;-94
2024/02/18 06:26:59;;;;;;;0.82;0.82;;;;;;;2.36;100.00;100081.75;4930059;29;20047;-94
2024/02/18 06:29:25;;;;;;;1.00;1.00;;;;;;;2.15;100.00;100084.41;4954468;29;20074;-94
2024/02/18 06:31:50;;;;;;;1.08;1.08;;;;;;;2.01;100.00;100087.59;4926862;29;20056;-93
2024/02/18 06:34:16;;;;;;;0.90;0.90;;;;;;;2.12;100.00;100084.19;4940251;29;20564;-93
2024/02/18 06:36:43;;;;;;;;;;;;;;;2.06;100.00;100078.41;4956082;29;20385;-93
2024/02/18 06:39:09;;;;;;;0.93;0.93;;;;;;;1.97;100.00;100077.63;4926397;28;20373;-94
2024/02/18 06:41:34;;;;;;;1.00;1.00;;;;;;;2.01;100.00;100083.28;4923882;29;20038;-93
2024/02/18 06:44:03;;;;;;;1.05;1.05;;;;;;;2.02;100.00;100078.94;4943298;29;20035;-93
2024/02/18 06:46:29;;;;;;;1.10;1.10;;;;;;;2.30;100.00;100083.09;4927713;28;20464;-93
2024/02/18 06:48:54;;;;;;;1.00;1.00;;;;;;;2.26;100.00;100074.78;4939163;29;20047;-94
2024/02/18 06:51:21;;;;;;;1.00;1.00;;;;;;;2.23;100.00;100078.09;4941534;29;20051;-93
2024/02/18 06:53:47;;;;;;;1.10;1.10;;;;;;;2.48;100.00;100077.47;4970424;28;20027;-94
2024/02/18 06:56:12;;;;;;;0.98;0.98;;;;;;;2.62;100.00;100073.34;4936554;29;20379;-93
2024/02/18 06:58:38;;;;;;;1.00;1.00;;;;;;;2.86;100.00;100066.50;4939080;29;20043;-93
2024/02/18 07:01:03;;;;;;;1.10;1.10;;;;;;;3.14;100.00;100065.28;4923872;29;20105;-94
2024/02/18 07:03:29;;;;;;;1.00;1.00;;;;;;;3.47;100.00;100061.75;4937947;29;20465;-93
2024/02/18 07:05:54;;;;;;;1.00;1.00;;;;;;;4.05;98.47;100063.59;4925823;29;20039;-93
2024/02/18 07:08:21;;;;;;;1.00;1.00;;;;;;;4.13;96.49;100063.28;4939930;29;20390;-94
2024/02/18 07:10:46;;;;;;;1.00;1.00;;;;;;;4.07;95.56;100063.69;4909262;29;20043;-93
2024/02/18 07:13:12;;;;;;;0.90;0.90;;;;;;;4.19;95.17;100048.78;4940708;29;20079;-94
2024/02/18 07:15:37;;;;;;;0.90;0.90;;;;;;;4.50;94.90;100049.34;4926450;29;20046;-95
2024/02/18 07:18:04;;;;;;;1.00;1.00;;;;;;;4.72;92.59;100049.19;4926934;29;20047;-96
2024/02/18 07:20:29;;;;;;;1.00;1.00;;;;;;;4.83;94.22;100053.53;4925303;29;20048;-94
2024/02/18 07:22:56;;;;;;;0.80;0.80;;;;;;;5.09;93.66;100060.72;4926596;29;20082;-93
2024/02/18 07:25:25;;;;;;;0.80;0.80;;;;;;;5.03;94.23;100054.06;4940380;29;20020;-92
2024/02/18 07:27:52;;;;;;;0.80;0.80;;;;;;;5.09;93.96;100049.22;4923411;29;20070;-91
2024/02/18 07:30:17;;;;;;;0.80;0.80;;;;;;;4.91;93.51;100050.53;4934736;29;20054;-94
2024/02/18 07:32:43;;;;;;;0.70;0.70;;;;;;;4.88;94.47;100048.59;4917215;29;20048;-91
2024/02/18 07:35:08;;;;;;;0.80;0.80;;;;;;;5.01;94.27;100046.03;4937758;29;20039;-92
2024/02/18 07:37:34;;;;;;;0.80;0.80;;;;;;;4.94;94.07;100050.78;4943045;28;20015;-92
2024/02/18 07:39:59;;;;;;;0.80;0.80;;;;;;;5.13;93.86;100049.56;4932239;29;20082;-91
2024/02/18 07:42:25;;;;;;;0.80;0.80;;;;;;;5.08;93.62;100047.41;4973267;28;20062;-92
2024/02/18 07:44:51;;;;;;;0.80;0.80;;;;;;;5.07;93.40;100042.91;4939755;29;20043;-92
2024/02/18 07:47:18;;;;;;;0.82;0.82;;;;;;;4.97;92.61;100045.69;4954167;28;20045;-93
2024/02/18 07:49:46;;;;;;;0.80;0.80;;;;;;;4.89;93.54;100032.84;4939017;29;20048;-92
2024/02/18 07:52:11;;;;;;;0.70;0.70;;;;;;;4.67;94.19;100042.66;4933213;29;20040;-91
2024/02/18 07:54:37;;;;;;;0.90;0.90;;;;;;;5.08;94.13;100040.38;4940311;29;20130;-93
2024/02/18 07:57:03;;;;;;;0.90;0.90;;;;;;;5.78;91.46;100040.84;4957624;28;20385;-93
2024/02/18 07:59:28;;;;;;;0.90;0.90;;;;;;;6.66;90.80;100035.34;4950147;29;20031;-94
2024/02/18 08:01:53;;;;;;;0.90;0.90;;;;;;;7.00;87.71;100037.53;4930969;29;20573;-93
2024/02/18 08:04:20;;;;;;;0.80;0.80;;;;;;;7.06;86.39;100035.25;4944922;29;20043;-92
2024/02/18 08:06:45;;;;;;;0.80;0.80;;;;;;;6.88;87.57;100041.19;4941327;29;20035;-91
2024/02/18 08:09:12;;;;;;;0.70;0.70;;;;;;;7.00;87.63;100040.19;4917414;29;20044;-93
2024/02/18 08:11:38;;;;;;;0.90;0.90;;;;;;;7.12;87.35;100043.59;4895154;29;20039;-93
2024/02/18 08:14:05;;;;;;;0.80;0.80;;;;;;;7.42;87.94;100031.31;4946922;29;20592;-93
2024/02/18 08:16:31;;;;;;;0.88;0.88;;;;;;;7.65;87.27;100032.75;4925932;29;20045;-94
2024/02/18 08:18:57;;;;;;;0.80;0.80;;;;;;;7.46;87.70;100031.63;4919217;29;20059;-92
2024/02/18 08:21:23;;;;;;;0.80;0.80;;;;;;;7.55;86.47;100043.63;4926472;29;20089;-92
2024/02/18 08:23:50;;;;;;;0.80;0.80;;;;;;;7.74;87.79;100035.97;4936388;29;20482;-93
2024/02/18 08:26:25;;;;;;;0.82;0.82;;;;;;;7.36;87.45;100034.53;4941093;29;20046;-92
2024/02/18 08:28:52;;;;;;;0.70;0.70;;;;;;;7.37;88.51;100027.47;4951934;29;20062;-93
2024/02/18 08:31:21;;;;;;;0.80;0.80;;;;;;;7.35;88.35;100026.47;4936473;29;20163;-92
2024/02/18 08:33:48;;;;;;;0.70;0.70;;;;;;;7.49;88.00;100030.00;4959068;28;20035;-93
2024/02/18 08:36:16;;;;;;;0.80;0.80;;;;;;;7.18;88.75;100023.66;4947136;29;20041;-92
2024/02/18 08:38:43;;;;;;;0.80;0.80;;;;;;;6.80;88.53;100023.84;4935057;29;20047;-93
2024/02/18 08:41:11;;;;;;;0.80;0.80;;;;;;;7.65;88.58;100008.84;4943268;29;20043;-92
2024/02/18 08:43:43;;;;;;;0.80;0.80;;;;;;;7.68;86.20;100009.97;4946926;29;20027;-93
2024/02/18 08:46:09;;;;;;;0.70;0.70;;;;;;;8.10;85.43;99997.44;4951211;29;20043;-94
2024/02/18 08:48:36;;;;;;;0.70;0.70;;;;;;;8.31;83.17;100002.16;4952328;29;20023;-93
2024/02/18 08:51:03;;;;;;;0.70;0.70;;;;;;;8.93;81.39;99999.56;4957979;29;20032;-92
2024/02/18 08:53:30;;;;;;;0.80;0.80;;;;;;;8.73;80.21;100002.00;4976669;28;20051;-93
2024/02/18 08:55:55;;;;;;;0.80;0.80;;;;;;;10.54;75.81;99990.34;4949076;29;20295;-90
2024/02/18 08:58:20;;;;;;;0.70;0.70;;;;;;;11.51;70.08;99990.47;4963873;28;20058;-91
2024/02/18 09:00:47;;;;;;;0.65;0.65;;;;;;;12.09;67.15;99992.19;4936869;29;20575;-93
2024/02/18 09:03:14;;;;;;;0.50;0.50;;;;;;;12.20;66.09;99990.88;4962621;28;20109;-92
2024/02/18 09:05:39;;;;;;;0.60;0.60;;;;;;;11.53;69.19;99984.34;4953597;29;20067;-91
2024/02/18 09:08:05;;;;;;;0.50;0.50;;;;;;;11.27;69.73;99985.84;4971054;29;20028;-91
2024/02/18 09:10:31;;;;;;;0.50;0.50;;;;;;;9.84;74.54;99984.97;4969672;29;20023;-90
2024/02/18 09:13:01;;;;;;;0.60;0.60;;;;;;;9.19;76.81;99980.59;4966004;29;20031;-93
2024/02/18 09:15:30;;;;;;;0.60;0.60;;;;;;;8.86;78.26;99976.06;4968235;29;20031;-91
2024/02/18 09:17:56;;;;;;;0.68;0.68;;;;;;;9.96;74.43;99964.25;4953576;29;20042;-93
2024/02/18 09:20:23;;;;;;;0.70;0.70;;;;;;;10.78;73.03;99951.47;4950796;29;20028;-91
2024/02/18 09:22:49;;;;;;;;;;;;;;;10.39;73.42;99947.78;4947247;29;20034;-92
2024/02/18 09:25:16;;;;;;;0.80;0.80;;;;;;;11.76;69.52;99939.03;4929354;29;19915;-94
2024/02/18 09:27:41;;;;;;;0.60;0.60;;;;;;;11.81;67.62;99932.09;4949441;29;20042;-92
2024/02/18 09:30:07;;;;;;;0.57;0.57;;;;;;;12.50;63.98;99932.34;4934011;29;20380;-90
2024/02/18 09:32:34;;;;;;;0.55;0.55;;;;;;;13.19;62.02;99935.09;4958724;29;20123;-90
2024/02/18 09:34:59;;;;;;;0.50;0.50;;;;;;;14.18;59.84;99929.72;4943873;29;20051;-91
2024/02/18 09:37:25;;;;;;;0.40;0.40;;;;;;;14.35;57.99;99921.38;4930512;29;20115;-91
2024/02/18 09:39:50;;;;;;;0.40;0.40;;;;;;;14.46;57.17;99927.09;4931669;29;20066;-91
2024/02/18 09:42:18;;;;;;;0.40;0.40;;;;;;;13.89;57.28;99921.59;4946196;29;20031;-92
2024/02/18 09:44:45;;;;;;;;;;;;;;;12.13;61.77;99919.25;4957075;29;20030;-91
2024/02/18 09:47:14;;;;;;;0.50;0.50;;;;;;;12.82;60.73;99922.94;4947490;29;19957;-91
2024/02/18 09:49:40;;;;;;;0.40;0.40;;;;;;;12.56;61.14;99912.13;4932437;28;20098;-91
2024/02/18 09:52:06;;;;;;;0.40;0.40;;;;;;;13.73;58.16;99904.06;4946366;29;20031;-92
2024/02/18 09:54:34;;;;;;;0.40;0.40;;;;;;;13.38;58.32;99900.13;4959362;29;20034;-91
2024/02/18 09:57:00;;;;;;;0.45;0.45;;;;;;;13.26;59.17;99905.91;4946318;29;20095;-91
2024/02/18 09:59:26;;;;;;;0.40;0.40;;;;;;;13.34;58.36;99895.50;4946439;29;20032;-92
2024/02/18 10:01:58;;;;;;;0.40;0.40;;;;;;;14.10;54.33;99884.78;4942726;29;20054;-92
2024/02/18 10:04:25;;;;;;;0.40;0.40;;;;;;;14.71;54.52;99876.88;4946898;29;20035;-92
2024/02/18 10:06:53;;;;;;;0.40;0.40;;;;;;;14.25;53.48;99879.00;4963773;28;20070;-92
2024/02/18 10:09:18;;;;;;;0.40;0.40;;;;;;;14.26;54.80;99878.13;4953721;29;20062;-93
2024/02/18 10:11:45;;;;;;;0.30;0.30;;;;;;;15.58;50.55;99874.09;4948296;29;20036;-92
2024/02/18 10:14:10;;;;;;;0.40;0.40;;;;;;;15.51;49.74;99862.22;4963044;28;20042;-91
2024/02/18 10:16:36;;;;;;;0.30;0.30;;;;;;;15.22;49.75;99865.88;4938192;29;20103;-91
2024/02/18 10:19:02;;;;;;;0.30;0.30;;;;;;;14.26;52.76;99874.53;4945423;29;20058;-91
2024/02/18 10:21:27;;;;;;;0.30;0.30;;;;;;;13.50;53.60;99868.38;4944618;29;20031;-92
2024/02/18 10:23:54;;;;;;;0.40;0.40;;;;;;;14.40;51.83;99867.84;4949556;29;20063;-92
2024/02/18 10:26:20;;;;;;;0.40;0.40;;;;;;;14.13;52.41;99862.47;4960289;29;20122;-91
2024/02/18 10:28:46;;;;;;;0.30;0.30;;;;;;;14.51;52.69;99861.06;4937027;29;20071;-90
2024/02/18 10:31:13;;;;;;;0.38;0.38;;;;;;;14.62;52.78;99858.75;4943767;29;20047;-91
2024/02/18 10:33:38;;;;;;;0.30;0.30;;;;;;;14.68;52.24;99850.84;4940512;29;20035;-90
2024/02/18 10:36:11;;;;;;;0.30;0.30;;;;;;;13.56;52.98;99855.19;4971670;28;20074;-90
2024/02/18 10:38:50;;;;;;;0.30;0.30;;;;;;;13.48;52.68;99845.97;4944342;29;20027;-90
2024/02/18 10:41:18;;;;;;;0.40;0.40;;;;;;;12.94;54.69;99847.53;4941352;28;20031;-90
2024/02/18 10:43:54;;;;;;;0.40;0.40;;;;;;;13.08;54.10;99848.94;4959042;28;20497;-90
2024/02/18 10:46:24;;;;;;;0.40;0.40;;;;;;;13.19;54.02;99828.81;4957425;29;20031;-91
2024/02/18 10:48:56;;;;;;;0.40;0.40;;;;;;;13.10;53.74;99832.06;4958451;28;20036;-92
2024/02/18 10:51:39;;;;;;;0.40;0.40;;;;;;;13.35;53.10;99831.19;4962620;28;20050;-91
2024/02/18 10:54:27;;;;;;;0.40;0.40;;;;;;;14.02;52.07;99820.97;4932788;29;20043;-91
2024/02/18 10:56:55;;;;;;;0.40;0.40;;;;;;;13.53;53.33;99819.31;4955049;28;20074;-90
2024/02/18 10:59:49;;;;;;;0.30;0.30;;;;;;;12.31;55.20;99812.94;4953914;29;20024;-90
2024/02/18 11:02:23;;;;;;;0.40;0.40;;;;;;;13.00;55.23;99807.56;4970328;28;20336;-91
2024/02/18 11:04:49;;;;;;;0.40;0.40;;;;;;;14.10;52.40;99804.25;4954177;29;20035;-90
2024/02/18 11:07:16;;;;;;;0.40;0.40;;;;;;;13.77;52.89;99801.38;4960371;28;20041;-90
2024/02/18 11:09:45;;;;;;;0.40;0.40;;;;;;;12.82;53.91;99794.38;4941880;29;20054;-90
2024/02/18 11:12:13;;;;;;;0.40;0.40;;;;;;;13.29;53.07;99797.91;4963198;28;20027;-89
2024/02/18 11:14:40;;;;;;;0.40;0.40;;;;;;;13.14;54.67;99794.66;4959351;29;20039;-90
2024/02/18 11:17:10;;;;;;;0.40;0.40;;;;;;;13.66;52.56;99785.81;4953537;29;20057;-91
2024/02/18 11:19:37;;;;;;;0.40;0.40;;;;;;;14.02;51.04;99783.41;4971523;28;20031;-89
2024/02/18 11:22:03;;;;;;;0.40;0.40;;;;;;;14.53;49.31;99784.16;4971578;28;20044;-89
2024/02/18 11:24:29;;;;;;;0.40;0.40;;;;;;;14.94;48.65;99772.78;4963111;28;20058;-89
2024/02/18 11:26:56;;;;;;;0.40;0.40;;;;;;;14.00;50.82;99774.41;4976379;28;20032;-90
2024/02/18 11:29:21;;;;;;;0.40;0.40;;;;;;;14.00;50.62;99764.59;4955345;29;20052;-90